createdAt,value
2018-07-31T00:00:42.748Z,53.57
2018-07-31T00:03:17.380Z,53.91
2018-07-31T00:05:51.844Z,54.13
2018-07-31T00:08:26.335Z,55.22
2018-07-31T00:11:00.966Z,54.89
2018-07-31T00:13:35.671Z,55.32
2018-07-31T00:16:10.191Z,56.47
2018-07-31T00:18:44.873Z,56.33
2018-07-31T00:21:19.412Z,56.97
2018-07-31T00:23:54.273Z,57.05
2018-07-31T00:26:28.730Z,57.29
2018-07-31T00:29:03.721Z,56.80
2018-07-31T00:31:41.079Z,56.70
2018-07-31T00:34:15.569Z,56.73
2018-07-31T00:36:50.049Z,56.51
2018-07-31T00:39:24.757Z,57.26
2018-07-31T00:41:59.168Z,57.64
2018-07-31T00:44:33.784Z,58.28
2018-07-31T00:47:08.916Z,58.18
2018-07-31T00:49:43.789Z,58.31
2018-07-31T00:52:18.237Z,57.78
2018-07-31T00:54:52.993Z,57.81
2018-07-31T00:57:27.637Z,57.63
2018-07-31T01:00:02.609Z,58.50
2018-07-31T01:02:37.117Z,58.91
2018-07-31T01:05:18.575Z,59.08
2018-07-31T01:07:53.224Z,59.25
2018-07-31T01:10:27.892Z,59.02
2018-07-31T01:13:02.538Z,59.72
2018-07-31T01:15:37.124Z,60.43
2018-07-31T01:18:11.905Z,60.54
2018-07-31T01:20:48.804Z,60.87
2018-07-31T01:23:23.449Z,60.98
2018-07-31T01:25:58.159Z,61.67
2018-07-31T01:28:32.625Z,61.14
2018-07-31T01:31:07.236Z,61.89
2018-07-31T01:33:42.095Z,61.73
2018-07-31T01:36:16.884Z,61.95
2018-07-31T01:38:51.464Z,61.90
2018-07-31T01:41:26.098Z,61.99
2018-07-31T01:44:00.569Z,61.94
2018-07-31T01:46:35.063Z,62.53
2018-07-31T01:49:09.642Z,63.33
2018-07-31T01:51:44.620Z,63.58
2018-07-31T01:54:19.242Z,64.01
2018-07-31T01:56:53.866Z,63.77
2018-07-31T01:59:28.362Z,64.47
2018-07-31T02:02:02.991Z,65.40
2018-07-31T02:04:37.754Z,64.72
2018-07-31T02:07:12.481Z,65.20
2018-07-31T02:09:47.110Z,65.57
2018-07-31T02:12:24.559Z,66.14
2018-07-31T02:14:59.525Z,66.23
2018-07-31T02:17:34.507Z,66.41
2018-07-31T02:20:09.072Z,66.10
2018-07-31T02:22:43.706Z,66.49
2018-07-31T02:25:18.269Z,66.80
2018-07-31T02:27:53.047Z,66.76
2018-07-31T02:30:27.553Z,66.56
2018-07-31T02:36:06.841Z,67.73
2018-07-31T02:38:41.440Z,67.92
2018-07-31T02:41:16.394Z,68.24
2018-07-31T02:43:52.448Z,68.58
2018-07-31T02:46:26.985Z,69.08
2018-07-31T02:49:01.749Z,69.46
2018-07-31T02:51:36.489Z,69.18
2018-07-31T02:54:11.143Z,69.87
2018-07-31T02:56:45.779Z,70.04
2018-07-31T02:59:20.418Z,69.86
2018-07-31T03:01:55.273Z,70.28
2018-07-31T03:04:29.913Z,70.95
2018-07-31T03:07:04.602Z,71.82
2018-07-31T03:09:39.384Z,71.39
2018-07-31T03:12:14.060Z,71.52
2018-07-31T03:14:48.722Z,72.35
2018-07-31T03:17:23.197Z,72.99
2018-07-31T03:19:57.908Z,73.27
2018-07-31T03:22:33.121Z,73.10
2018-07-31T03:25:07.614Z,73.64
2018-07-31T03:27:42.140Z,74.06
2018-07-31T03:30:16.623Z,73.59
2018-07-31T03:32:51.313Z,74.13
2018-07-31T03:35:26.162Z,74.13
2018-07-31T03:38:00.860Z,73.54
2018-07-31T03:40:35.499Z,74.21
2018-07-31T03:43:09.956Z,74.35
2018-07-31T03:45:44.435Z,74.47
2018-07-31T03:48:19.163Z,75.20
2018-07-31T03:50:54.264Z,75.61
2018-07-31T03:53:28.791Z,75.21
2018-07-31T03:56:03.367Z,75.39
2018-07-31T03:58:37.798Z,75.70
2018-07-31T04:01:12.281Z,75.36
2018-07-31T04:03:46.849Z,75.94
2018-07-31T04:06:21.604Z,75.41
2018-07-31T04:08:56.048Z,75.57
2018-07-31T04:11:31.025Z,76.25
2018-07-31T04:14:05.552Z,75.81
2018-07-31T04:16:40.351Z,76.26
2018-07-31T04:19:15.477Z,76.23
2018-07-31T04:21:49.965Z,75.31
2018-07-31T04:24:24.728Z,76.41
2018-07-31T04:26:59.256Z,76.21
2018-07-31T04:29:33.858Z,75.57
2018-07-31T04:32:08.696Z,75.13
2018-07-31T04:34:43.432Z,75.20
2018-07-31T04:37:18.196Z,75.74
2018-07-31T04:39:53.414Z,76.34
2018-07-31T04:42:28.007Z,76.00
2018-07-31T04:45:02.797Z,76.05
2018-07-31T04:47:37.724Z,74.74
2018-07-31T04:50:12.388Z,76.61
2018-07-31T04:52:46.879Z,75.05
2018-07-31T04:55:21.426Z,75.17
2018-07-31T04:57:56.212Z,73.41
2018-07-31T05:00:31.489Z,70.77
2018-07-31T05:03:06.118Z,71.86
2018-07-31T05:05:40.640Z,71.36
2018-07-31T05:08:15.306Z,69.13
2018-07-31T05:10:49.774Z,69.58
2018-07-31T05:13:24.419Z,68.11
2018-07-31T05:15:59.051Z,69.50
2018-07-31T05:18:33.616Z,69.36
2018-07-31T05:21:08.220Z,71.96
2018-07-31T05:23:42.922Z,70.06
2018-07-31T05:26:17.378Z,71.43
2018-07-31T05:28:51.958Z,72.32
2018-07-31T05:31:26.566Z,70.83
2018-07-31T05:34:01.096Z,70.54
2018-07-31T05:36:35.539Z,67.96
2018-07-31T05:39:11.720Z,68.60
2018-07-31T05:41:46.243Z,65.34
2018-07-31T05:44:21.126Z,65.14
2018-07-31T05:46:55.714Z,64.23
2018-07-31T05:49:30.263Z,61.83
2018-07-31T05:52:04.985Z,62.39
2018-07-31T05:54:40.745Z,61.08
2018-07-31T05:57:15.169Z,60.32
2018-07-31T05:59:49.773Z,59.80
2018-07-31T06:02:24.173Z,56.71
2018-07-31T06:04:58.976Z,56.46
2018-07-31T06:07:33.697Z,56.29
2018-07-31T06:10:08.924Z,56.08
2018-07-31T06:12:43.379Z,54.37
2018-07-31T06:15:18.158Z,53.07
2018-07-31T06:17:52.574Z,51.70
2018-07-31T06:20:27.275Z,50.85
2018-07-31T06:23:02.306Z,50.18
2018-07-31T06:25:36.878Z,47.83
2018-07-31T06:28:11.289Z,44.22
2018-07-31T06:30:45.789Z,42.41
2018-07-31T06:33:20.352Z,41.45
2018-07-31T06:35:54.876Z,45.12
2018-07-31T06:38:29.897Z,47.48
2018-07-31T06:41:04.790Z,49.25
2018-07-31T06:43:39.354Z,51.24
2018-07-31T06:46:14.043Z,52.20
2018-07-31T06:48:48.873Z,53.94
2018-07-31T06:51:23.225Z,55.29
2018-07-31T06:53:57.701Z,54.82
2018-07-31T06:56:32.272Z,53.90
2018-07-31T06:59:06.655Z,55.10
2018-07-31T07:01:41.144Z,54.94
2018-07-31T07:04:15.653Z,53.52
2018-07-31T07:06:50.339Z,50.49
2018-07-31T07:09:25.007Z,46.84
2018-07-31T07:11:59.565Z,46.61
2018-07-31T07:14:34.148Z,47.71
2018-07-31T07:17:08.772Z,49.02
2018-07-31T07:19:43.448Z,48.34
2018-07-31T07:22:18.062Z,46.37
2018-07-31T07:24:52.999Z,44.86
2018-07-31T07:27:27.582Z,40.10
2018-07-31T07:30:02.164Z,42.69
2018-07-31T07:32:36.740Z,41.80
2018-07-31T07:35:11.355Z,42.95
2018-07-31T07:37:45.753Z,42.45
2018-07-31T07:40:20.466Z,43.33
2018-07-31T07:42:55.054Z,44.00
2018-07-31T07:45:29.600Z,42.11
2018-07-31T07:48:04.092Z,40.31
2018-07-31T07:50:38.592Z,39.54
2018-07-31T07:53:13.100Z,36.89
2018-07-31T07:55:47.614Z,33.61
2018-07-31T07:58:22.208Z,36.22
2018-07-31T08:00:57.101Z,40.14
2018-07-31T08:03:31.680Z,35.92
2018-07-31T08:06:06.449Z,31.56
2018-07-31T08:08:41.162Z,34.54
2018-07-31T08:11:15.673Z,34.86
2018-07-31T08:13:50.306Z,30.72
2018-07-31T08:16:24.730Z,27.11
2018-07-31T08:18:59.265Z,28.85
2018-07-31T08:21:33.774Z,29.75
2018-07-31T08:24:08.357Z,28.76
2018-07-31T08:26:42.978Z,31.74
2018-07-31T08:29:17.547Z,31.56
2018-07-31T08:31:52.189Z,30.12
2018-07-31T08:40:24.152Z,26.49
2018-07-31T08:42:58.512Z,27.62
2018-07-31T08:45:33.082Z,33.26
2018-07-31T08:48:07.532Z,33.29
2018-07-31T08:50:42.184Z,34.27
2018-07-31T08:53:16.824Z,33.28
2018-07-31T08:55:51.367Z,32.04
2018-07-31T08:58:26.033Z,29.58
2018-07-31T09:01:00.699Z,31.88
2018-07-31T09:03:35.371Z,33.92
2018-07-31T09:06:09.996Z,30.61
2018-07-31T09:08:44.544Z,28.71
2018-07-31T09:11:34.843Z,29.40
2018-07-31T09:14:09.967Z,28.93
2018-07-31T09:16:44.657Z,23.61
2018-07-31T09:19:19.084Z,23.72
2018-07-31T09:21:53.605Z,24.34
2018-07-31T09:24:28.289Z,23.30
2018-07-31T09:27:02.808Z,23.35
2018-07-31T09:29:37.369Z,27.13
2018-07-31T09:32:12.009Z,29.88
2018-07-31T09:34:46.401Z,33.23
2018-07-31T09:37:20.995Z,33.17
2018-07-31T09:39:56.055Z,32.01
2018-07-31T09:42:30.554Z,31.00
2018-07-31T09:45:05.205Z,30.40
2018-07-31T09:47:39.781Z,24.98
2018-07-31T09:50:14.278Z,25.40
2018-07-31T09:52:48.680Z,28.19
2018-07-31T09:55:23.108Z,26.69
2018-07-31T09:57:57.496Z,29.55
2018-07-31T10:00:37.244Z,33.80
2018-07-31T10:03:11.848Z,32.74
2018-07-31T10:05:46.693Z,32.95
2018-07-31T10:08:22.652Z,32.14
2018-07-31T10:10:57.122Z,34.13
2018-07-31T10:13:31.688Z,35.00
2018-07-31T10:16:06.184Z,30.52
2018-07-31T10:18:40.695Z,27.13
2018-07-31T10:21:15.036Z,29.81
2018-07-31T10:23:49.920Z,31.77
2018-07-31T10:26:24.320Z,30.79
2018-07-31T10:28:58.668Z,28.59
2018-07-31T10:31:33.076Z,27.08
2018-07-31T10:34:07.417Z,26.36
2018-07-31T10:36:41.960Z,22.77
2018-07-31T10:39:16.555Z,21.49
2018-07-31T10:41:50.984Z,22.90
2018-07-31T10:44:25.420Z,19.64
2018-07-31T10:47:00.381Z,21.28
2018-07-31T10:49:35.191Z,23.75
2018-07-31T10:52:09.575Z,23.89
2018-07-31T10:54:43.937Z,27.09
2018-07-31T10:57:18.355Z,30.07
2018-07-31T10:59:52.765Z,30.12
2018-07-31T11:02:27.164Z,29.16
2018-07-31T11:05:01.800Z,30.65
2018-07-31T11:07:36.220Z,31.72
2018-07-31T11:10:10.737Z,32.89
2018-07-31T11:12:45.453Z,33.47
2018-07-31T11:15:19.988Z,34.52
2018-07-31T11:17:54.574Z,30.34
2018-07-31T11:20:29.293Z,28.33
2018-07-31T11:23:03.899Z,28.66
2018-07-31T11:25:38.560Z,26.29
2018-07-31T11:28:13.283Z,25.08
2018-07-31T11:30:47.956Z,24.12
2018-07-31T11:33:22.822Z,24.12
2018-07-31T11:35:57.474Z,27.04
2018-07-31T11:38:31.983Z,25.60
2018-07-31T11:41:06.708Z,24.96
2018-07-31T11:43:41.317Z,26.07
2018-07-31T11:46:15.944Z,28.16
2018-07-31T11:48:50.948Z,25.70
2018-07-31T11:51:25.536Z,27.71
2018-07-31T11:54:00.152Z,29.27
2018-07-31T11:56:34.696Z,29.17
2018-07-31T11:59:09.206Z,28.92
2018-07-31T12:01:43.660Z,30.28
2018-07-31T12:04:18.268Z,31.36
2018-07-31T12:06:52.968Z,33.14
2018-07-31T12:09:27.744Z,32.65
2018-07-31T12:12:02.156Z,33.32
2018-07-31T12:14:36.777Z,34.16
2018-07-31T12:17:11.258Z,33.27
2018-07-31T12:19:45.840Z,34.90
2018-07-31T12:25:41.949Z,33.55
2018-07-31T12:28:17.021Z,33.34
2018-07-31T12:30:51.439Z,34.50
2018-07-31T12:33:26.008Z,33.88
2018-07-31T12:36:00.463Z,33.79
2018-07-31T12:41:33.841Z,34.80
2018-07-31T12:44:08.410Z,35.45
2018-07-31T12:46:42.971Z,34.56
2018-07-31T12:49:17.291Z,35.78
2018-07-31T12:51:51.644Z,35.61
2018-07-31T12:54:25.878Z,36.86
2018-07-31T12:57:00.299Z,36.73
2018-07-31T12:59:34.877Z,37.71
2018-07-31T13:02:09.176Z,37.03
2018-07-31T13:04:43.582Z,36.75
2018-07-31T13:07:18.308Z,37.27
2018-07-31T13:09:52.755Z,36.61
2018-07-31T13:12:27.398Z,36.35
2018-07-31T13:15:01.839Z,36.45
2018-07-31T13:17:36.083Z,36.16
2018-07-31T13:20:10.533Z,36.64
2018-07-31T13:22:45.003Z,36.54
2018-07-31T13:25:19.295Z,37.26
2018-07-31T13:27:53.807Z,36.53
2018-07-31T13:30:28.358Z,37.05
2018-07-31T13:33:03.189Z,37.65
2018-07-31T13:35:37.755Z,37.43
2018-07-31T13:38:12.192Z,36.28
2018-07-31T13:40:46.601Z,37.64
2018-07-31T13:43:21.163Z,37.63
2018-07-31T13:45:55.836Z,37.89
2018-07-31T13:48:30.446Z,37.09
2018-07-31T13:51:05.109Z,36.80
2018-07-31T13:53:39.681Z,36.43
2018-07-31T13:56:14.085Z,36.54
2018-07-31T13:58:48.524Z,37.22
2018-07-31T14:01:22.975Z,37.15
2018-07-31T14:03:57.642Z,36.70
2018-07-31T14:06:32.322Z,36.21
2018-07-31T14:09:09.097Z,36.84
2018-07-31T14:11:43.618Z,35.93
2018-07-31T14:14:25.448Z,36.29
2018-07-31T14:16:59.999Z,37.06
2018-07-31T14:19:34.750Z,36.68
2018-07-31T14:22:09.328Z,36.59
2018-07-31T14:24:44.082Z,35.54
2018-07-31T14:27:18.500Z,34.48
2018-07-31T14:29:52.901Z,33.76
2018-07-31T14:32:27.340Z,32.54
2018-07-31T14:35:01.955Z,32.17
2018-07-31T14:37:36.608Z,31.20
2018-07-31T14:40:11.184Z,30.80
2018-07-31T14:42:45.587Z,29.44
2018-07-31T14:45:20.151Z,29.56
2018-07-31T14:47:54.741Z,29.83
2018-07-31T14:50:29.177Z,30.83
2018-07-31T14:53:03.520Z,33.25
2018-07-31T14:55:38.092Z,33.43
2018-07-31T14:58:12.472Z,32.44
2018-07-31T15:00:46.889Z,31.84
2018-07-31T15:03:21.381Z,32.40
2018-07-31T15:05:55.992Z,32.51
2018-07-31T15:08:30.444Z,33.53
2018-07-31T15:11:04.883Z,34.13
2018-07-31T15:13:40.071Z,34.41
2018-07-31T15:16:14.524Z,34.76
2018-07-31T15:18:49.028Z,32.35
2018-07-31T15:21:23.588Z,30.59
2018-07-31T15:23:58.163Z,30.87
2018-07-31T15:26:32.673Z,29.26
2018-07-31T15:29:07.221Z,28.88
2018-07-31T15:31:41.753Z,29.59
2018-07-31T15:34:16.176Z,29.69
2018-07-31T15:36:50.644Z,28.27
2018-07-31T15:39:25.252Z,29.11
2018-07-31T15:41:59.827Z,28.41
2018-07-31T15:44:34.293Z,28.92
2018-07-31T15:47:08.741Z,29.83
2018-07-31T15:49:43.296Z,29.50
2018-07-31T15:52:17.730Z,30.09
2018-07-31T15:54:52.376Z,30.89
2018-07-31T15:57:27.600Z,31.22
2018-07-31T16:00:02.037Z,30.81
2018-07-31T16:02:36.630Z,31.34
2018-07-31T16:05:11.211Z,31.18
2018-07-31T16:07:46.100Z,32.24
2018-07-31T16:10:20.656Z,32.78
2018-07-31T16:12:55.269Z,31.20
2018-07-31T16:15:29.840Z,33.01
2018-07-31T16:18:04.355Z,32.67
2018-07-31T16:20:38.829Z,32.09
2018-07-31T16:23:13.490Z,32.96
2018-07-31T16:25:47.973Z,33.91
2018-07-31T16:28:22.910Z,33.84
2018-07-31T16:30:57.504Z,32.21
2018-07-31T16:33:31.998Z,33.02
2018-07-31T16:36:06.393Z,33.57
2018-07-31T16:38:41.008Z,33.68
2018-07-31T16:41:15.544Z,33.15
2018-07-31T16:43:50.076Z,32.86
2018-07-31T16:46:24.680Z,33.22
2018-07-31T16:48:59.187Z,33.02
2018-07-31T16:51:33.982Z,32.94
2018-07-31T16:54:08.752Z,33.28
2018-07-31T16:56:43.165Z,32.92
2018-07-31T16:59:17.592Z,32.72
2018-07-31T17:01:52.128Z,33.29
2018-07-31T17:04:32.673Z,33.17
2018-07-31T17:07:07.409Z,33.35
2018-07-31T17:09:41.897Z,33.32
2018-07-31T17:12:16.409Z,33.49
2018-07-31T17:14:51.026Z,33.77
2018-07-31T17:17:25.633Z,32.84
2018-07-31T17:20:00.200Z,32.81
2018-07-31T17:22:34.680Z,33.37
2018-07-31T17:25:09.098Z,33.63
2018-07-31T17:27:43.657Z,33.82
2018-07-31T17:30:18.064Z,33.73
2018-07-31T17:32:52.509Z,34.06
2018-07-31T17:35:27.125Z,33.72
2018-07-31T17:38:01.771Z,33.70
2018-07-31T17:40:36.454Z,34.95
2018-07-31T17:43:10.950Z,34.26
2018-07-31T17:45:45.412Z,35.86
2018-07-31T17:48:20.004Z,35.46
2018-07-31T17:50:54.556Z,35.45
2018-07-31T17:53:29.184Z,35.87
2018-07-31T17:56:03.828Z,36.54
2018-07-31T17:58:38.523Z,35.88
2018-07-31T18:01:13.028Z,36.53
2018-07-31T18:03:47.490Z,36.18
2018-07-31T18:06:22.076Z,36.19
2018-07-31T18:08:56.513Z,36.75
2018-07-31T18:11:31.397Z,38.07
2018-07-31T18:14:05.929Z,38.04
2018-07-31T18:16:40.316Z,38.31
2018-07-31T18:19:14.968Z,39.07
2018-07-31T18:21:50.211Z,38.88
2018-07-31T18:24:24.752Z,39.04
2018-07-31T18:26:59.378Z,39.71
2018-07-31T18:29:33.815Z,39.79
2018-07-31T18:32:08.330Z,40.07
2018-07-31T18:34:42.980Z,40.32
2018-07-31T18:37:17.725Z,40.51
2018-07-31T18:39:52.378Z,39.91
2018-07-31T18:42:27.076Z,40.35
2018-07-31T18:45:01.888Z,40.62
2018-07-31T18:47:36.579Z,41.64
2018-07-31T18:50:11.389Z,42.39
2018-07-31T18:52:45.688Z,42.43
2018-07-31T18:55:20.223Z,43.67
2018-07-31T18:57:54.897Z,43.97
2018-07-31T19:00:29.420Z,44.57
2018-07-31T19:03:03.904Z,45.07
2018-07-31T19:05:38.520Z,44.91
2018-07-31T19:08:12.987Z,45.34
2018-07-31T19:10:47.580Z,45.56
2018-07-31T19:13:22.242Z,46.15
2018-07-31T19:15:56.774Z,46.32
2018-07-31T19:18:31.432Z,46.71
2018-07-31T19:21:05.928Z,46.53
2018-07-31T19:23:40.620Z,47.07
2018-07-31T19:26:15.656Z,47.07
2018-07-31T19:28:50.632Z,47.58
2018-07-31T19:31:25.365Z,47.47
2018-07-31T19:33:59.915Z,47.83
2018-07-31T19:36:34.492Z,48.36
2018-07-31T19:39:09.659Z,48.12
2018-07-31T19:41:44.879Z,48.17
2018-07-31T19:44:19.265Z,48.66
2018-07-31T19:46:53.620Z,48.96
2018-07-31T19:49:28.034Z,49.19
2018-07-31T19:52:02.860Z,49.23
2018-07-31T19:54:37.764Z,48.92
2018-07-31T19:57:12.246Z,48.88
2018-07-31T19:59:46.670Z,49.70
2018-07-31T20:02:21.113Z,49.56
2018-07-31T20:04:55.842Z,49.83
2018-07-31T20:07:30.285Z,49.62
2018-07-31T20:10:05.681Z,49.94
2018-07-31T20:12:40.152Z,50.13
2018-07-31T20:15:14.928Z,49.89
2018-07-31T20:17:49.604Z,50.29
2018-07-31T20:20:24.267Z,50.45
2018-07-31T20:22:59.022Z,51.04
2018-07-31T20:25:33.940Z,51.33
2018-07-31T20:28:08.350Z,51.01
2018-07-31T20:30:43.075Z,51.08
2018-07-31T20:33:17.549Z,51.40
2018-07-31T20:35:52.013Z,50.97
2018-07-31T20:38:26.667Z,51.43
2018-07-31T20:41:01.151Z,51.77
2018-07-31T20:43:35.776Z,51.47
2018-07-31T20:46:10.359Z,51.39
2018-07-31T20:48:45.178Z,51.37
2018-07-31T20:51:19.672Z,51.97
2018-07-31T20:53:54.012Z,51.87
2018-07-31T20:56:28.640Z,52.04
2018-07-31T20:59:03.228Z,52.17
2018-07-31T21:01:37.798Z,51.88
2018-07-31T21:04:12.251Z,51.78
2018-07-31T21:06:46.660Z,51.98
2018-07-31T21:09:22.024Z,51.36
2018-07-31T21:11:56.456Z,51.58
2018-07-31T21:14:31.024Z,51.98
2018-07-31T21:17:05.651Z,52.23
2018-07-31T21:19:40.204Z,52.20
2018-07-31T21:22:14.772Z,51.94
2018-07-31T21:24:49.245Z,52.38
2018-07-31T21:27:23.736Z,51.50
2018-07-31T21:29:58.265Z,52.13
2018-07-31T21:32:32.945Z,51.69
2018-07-31T21:35:07.520Z,51.75
2018-07-31T21:37:42.013Z,51.09
2018-07-31T21:40:16.661Z,51.39
2018-07-31T21:42:51.169Z,51.88
2018-07-31T21:45:25.688Z,51.43
2018-07-31T21:48:00.224Z,52.07
2018-07-31T21:50:34.907Z,52.30
2018-07-31T21:53:09.441Z,52.40
2018-07-31T21:55:44.090Z,52.67
2018-07-31T21:58:18.710Z,53.14
2018-07-31T22:00:58.517Z,53.14
2018-07-31T22:03:33.172Z,53.37
2018-07-31T22:06:08.440Z,53.47
2018-07-31T22:08:42.949Z,53.50
2018-07-31T22:11:17.558Z,53.87
2018-07-31T22:13:52.038Z,53.44
2018-07-31T22:16:26.625Z,53.00
2018-07-31T22:19:01.286Z,53.25
2018-07-31T22:21:35.924Z,52.59
2018-07-31T22:24:10.548Z,52.32
2018-07-31T22:26:45.280Z,52.64
2018-07-31T22:29:19.753Z,52.23
2018-07-31T22:31:54.269Z,52.79
2018-07-31T22:34:28.736Z,52.68
2018-07-31T22:37:03.372Z,53.09
2018-07-31T22:39:37.793Z,52.47
2018-07-31T22:42:12.516Z,53.22
2018-07-31T22:44:47.093Z,53.22
2018-07-31T22:47:22.049Z,53.04
2018-07-31T22:53:07.745Z,53.55
2018-07-31T22:55:42.388Z,53.74
2018-07-31T22:58:16.969Z,53.34
2018-07-31T23:00:51.652Z,53.25
2018-07-31T23:03:26.237Z,53.04
2018-07-31T23:06:00.777Z,53.47
2018-07-31T23:08:35.255Z,53.42
2018-07-31T23:11:09.800Z,53.54
2018-07-31T23:13:44.353Z,53.53
2018-07-31T23:16:19.038Z,53.71
2018-07-31T23:18:53.616Z,54.16
2018-07-31T23:21:28.170Z,53.84
2018-07-31T23:24:02.729Z,54.08
2018-07-31T23:26:37.401Z,54.71
2018-07-31T23:29:12.060Z,54.40
2018-07-31T23:31:46.957Z,54.25
2018-07-31T23:34:22.261Z,54.57
2018-07-31T23:36:56.865Z,54.99
2018-07-31T23:39:31.564Z,54.98
2018-07-31T23:42:06.077Z,54.71
2018-07-31T23:44:40.744Z,55.33
2018-07-31T23:47:15.236Z,55.08
2018-07-31T23:49:50.096Z,55.45
2018-07-31T23:52:24.753Z,55.39
2018-07-31T23:54:59.538Z,55.67
2018-07-31T23:57:33.989Z,55.87
